createdAt,value
2023-02-25T00:02:02.976Z,3.11
2023-02-25T00:04:48.484Z,3.11
2023-02-25T00:07:34.120Z,3.09
2023-02-25T00:10:19.534Z,3.12
2023-02-25T00:13:17.425Z,3.12
2023-02-25T00:16:04.700Z,3.17
2023-02-25T00:18:54.962Z,3.21
2023-02-25T00:21:40.143Z,3.21
2023-02-25T00:24:25.282Z,3.22
2023-02-25T00:27:10.102Z,3.15
2023-02-25T00:29:55.217Z,3.16
2023-02-25T00:32:40.515Z,3.19
2023-02-25T00:35:26.215Z,3.10
2023-02-25T00:38:16.147Z,3.09
2023-02-25T00:41:06.830Z,3.05
2023-02-25T00:43:58.612Z,3.06
2023-02-25T00:46:43.910Z,3.12
2023-02-25T00:49:32.532Z,3.12
2023-02-25T00:52:18.398Z,3.18
2023-02-25T00:55:05.019Z,3.00
2023-02-25T00:57:50.328Z,3.04
2023-02-25T01:00:46.511Z,3.11
2023-02-25T01:03:36.818Z,3.06
2023-02-25T01:06:23.827Z,3.07
2023-02-25T01:09:10.331Z,3.04
2023-02-25T01:11:55.394Z,3.03
2023-02-25T01:14:40.320Z,3.05
2023-02-25T01:17:25.668Z,2.98
2023-02-25T01:20:11.470Z,2.94
2023-02-25T01:22:57.344Z,2.86
2023-02-25T01:25:42.578Z,2.88
2023-02-25T01:28:28.330Z,2.80
2023-02-25T01:31:18.972Z,2.91
2023-02-25T01:34:06.633Z,2.84
2023-02-25T01:36:52.350Z,2.97
2023-02-25T01:39:39.378Z,2.95
2023-02-25T01:42:24.749Z,2.97
2023-02-25T01:45:18.597Z,3.01
2023-02-25T01:48:10.645Z,3.07
2023-02-25T01:51:00.398Z,3.07
2023-02-25T01:53:47.582Z,3.10
2023-02-25T01:56:33.782Z,3.13
2023-02-25T01:59:22.950Z,3.03
2023-02-25T02:02:13.292Z,3.05
2023-02-25T02:04:58.496Z,3.09
2023-02-25T02:07:43.564Z,3.00
2023-02-25T02:10:28.649Z,3.09
2023-02-25T02:13:14.177Z,3.09
2023-02-25T02:16:02.252Z,3.10
2023-02-25T02:18:54.623Z,3.14
2023-02-25T02:21:52.215Z,3.13
2023-02-25T02:25:08.873Z,3.20
2023-02-25T02:28:03.037Z,3.24
2023-02-25T02:31:10.344Z,3.13
2023-02-25T02:34:22.841Z,3.16
2023-02-25T02:37:45.693Z,3.18
2023-02-25T02:40:56.139Z,3.14
2023-02-25T02:43:46.087Z,3.23
2023-02-25T02:46:38.696Z,3.21
2023-02-25T02:49:40.671Z,3.22
2023-02-25T02:52:38.107Z,3.17
2023-02-25T02:55:31.166Z,3.13
2023-02-25T02:58:26.534Z,3.12
2023-02-25T03:01:16.860Z,3.10
2023-02-25T03:04:09.487Z,3.17
2023-02-25T03:07:02.755Z,3.13
2023-02-25T03:10:00.700Z,3.13
2023-02-25T03:12:45.945Z,3.12
2023-02-25T03:15:33.069Z,3.18
2023-02-25T03:18:49.418Z,3.15
2023-02-25T03:21:45.987Z,3.08
2023-02-25T03:24:50.515Z,2.99
2023-02-25T03:27:38.231Z,3.05
2023-02-25T03:30:50.217Z,3.09
2023-02-25T03:34:01.187Z,3.05
2023-02-25T03:36:53.662Z,3.01
2023-02-25T03:39:43.162Z,2.96
2023-02-25T03:42:34.929Z,2.99
2023-02-25T03:45:21.575Z,3.00
2023-02-25T03:48:09.067Z,3.06
2023-02-25T03:50:59.525Z,3.05
2023-02-25T03:53:45.147Z,3.11
2023-02-25T03:56:30.525Z,3.09
2023-02-25T03:59:16.358Z,3.13
2023-02-25T04:02:01.846Z,3.12
2023-02-25T04:04:47.034Z,3.16
2023-02-25T04:07:32.410Z,3.18
2023-02-25T04:10:17.557Z,3.18
2023-02-25T04:13:02.683Z,3.23
2023-02-25T04:15:49.325Z,3.20
2023-02-25T04:18:34.690Z,3.16
2023-02-25T04:21:31.716Z,3.10
2023-02-25T04:24:16.981Z,3.21
2023-02-25T04:27:01.953Z,3.07
2023-02-25T04:29:47.017Z,3.03
2023-02-25T04:32:32.071Z,3.14
2023-02-25T04:35:17.707Z,3.20
2023-02-25T04:38:02.727Z,3.25
2023-02-25T04:40:47.487Z,3.20
2023-02-25T04:43:32.947Z,3.18
2023-02-25T04:46:18.271Z,3.10
2023-02-25T04:49:04.102Z,3.13
2023-02-25T04:51:50.482Z,3.09
2023-02-25T04:54:35.635Z,2.98
2023-02-25T04:57:20.795Z,2.95
2023-02-25T05:00:06.722Z,2.92
2023-02-25T05:02:51.903Z,2.89
2023-02-25T05:05:37.345Z,2.78
2023-02-25T05:08:22.508Z,2.79
2023-02-25T05:11:07.840Z,2.62
2023-02-25T05:13:54.028Z,2.76
2023-02-25T05:16:39.302Z,2.66
2023-02-25T05:19:25.387Z,2.67
2023-02-25T05:22:10.619Z,2.68
2023-02-25T05:24:56.022Z,2.77
2023-02-25T05:27:41.392Z,2.65
2023-02-25T05:30:26.536Z,2.65
2023-02-25T05:33:11.581Z,2.66
2023-02-25T05:35:57.094Z,2.82
2023-02-25T05:38:42.971Z,2.71
2023-02-25T05:41:28.827Z,2.63
2023-02-25T05:44:13.566Z,2.71
2023-02-25T05:46:58.820Z,2.80
2023-02-25T05:49:44.053Z,2.81
2023-02-25T05:52:29.478Z,2.80
2023-02-25T05:55:14.938Z,2.78
2023-02-25T05:57:59.622Z,2.79
2023-02-25T06:00:44.572Z,2.83
2023-02-25T06:03:30.004Z,2.77
2023-02-25T06:06:18.025Z,2.59
2023-02-25T06:09:04.513Z,2.63
2023-02-25T06:11:49.776Z,2.72
2023-02-25T06:14:34.962Z,2.63
2023-02-25T06:17:20.316Z,2.74
2023-02-25T06:20:06.492Z,2.78
2023-02-25T06:22:52.213Z,2.79
2023-02-25T06:25:37.421Z,2.66
2023-02-25T06:28:22.792Z,2.78
2023-02-25T06:31:10.097Z,2.64
2023-02-25T06:33:55.509Z,2.74
2023-02-25T06:36:41.116Z,2.63
2023-02-25T06:39:26.387Z,2.63
2023-02-25T06:42:11.502Z,2.81
2023-02-25T06:44:56.513Z,2.83
2023-02-25T06:47:41.877Z,2.93
2023-02-25T06:50:29.757Z,2.95
2023-02-25T06:53:15.082Z,3.01
2023-02-25T06:56:00.509Z,3.00
2023-02-25T06:58:46.437Z,3.02
2023-02-25T07:01:31.680Z,2.97
2023-02-25T07:04:19.033Z,2.89
2023-02-25T07:07:07.910Z,3.01
2023-02-25T07:09:53.307Z,3.04
2023-02-25T07:12:38.416Z,3.09
2023-02-25T07:15:23.363Z,3.20
2023-02-25T07:18:09.340Z,3.28
2023-02-25T07:20:56.893Z,3.36
2023-02-25T07:23:42.855Z,3.42
2023-02-25T07:26:27.800Z,3.18
2023-02-25T07:29:13.345Z,3.27
2023-02-25T07:31:58.470Z,3.39
2023-02-25T07:34:43.792Z,3.49
2023-02-25T07:37:29.966Z,3.49
2023-02-25T07:40:14.810Z,3.34
2023-02-25T07:42:59.814Z,3.45
2023-02-25T07:45:44.906Z,3.51
2023-02-25T07:48:30.477Z,3.53
2023-02-25T07:51:18.453Z,3.62
2023-02-25T07:54:03.912Z,3.70
2023-02-25T07:56:49.323Z,3.82
2023-02-25T07:59:34.459Z,4.00
2023-02-25T08:02:19.832Z,4.05
2023-02-25T08:05:05.743Z,4.17
2023-02-25T08:07:50.717Z,4.15
2023-02-25T08:10:37.201Z,4.21
2023-02-25T08:13:22.311Z,4.28
2023-02-25T08:16:10.370Z,4.38
2023-02-25T08:18:55.419Z,4.40
2023-02-25T08:21:40.538Z,4.40
2023-02-25T08:24:26.097Z,4.52
2023-02-25T08:27:10.849Z,4.37
2023-02-25T08:29:57.428Z,4.39
2023-02-25T08:32:42.672Z,4.41
2023-02-25T08:35:28.193Z,4.27
2023-02-25T08:38:13.640Z,4.39
2023-02-25T08:41:00.557Z,4.38
2023-02-25T08:43:49.913Z,4.39
2023-02-25T08:46:35.444Z,4.42
2023-02-25T08:49:20.578Z,4.39
2023-02-25T08:52:06.435Z,4.40
2023-02-25T08:54:52.020Z,4.35
2023-02-25T08:57:37.252Z,4.37
2023-02-25T09:00:23.308Z,4.32
2023-02-25T09:03:08.507Z,4.25
2023-02-25T09:05:55.477Z,4.27
2023-02-25T09:08:41.100Z,4.32
2023-02-25T09:11:27.051Z,4.29
2023-02-25T09:14:13.431Z,4.27
2023-02-25T09:16:58.347Z,4.35
2023-02-25T09:19:43.239Z,4.56
2023-02-25T09:22:28.358Z,4.66
2023-02-25T09:25:13.540Z,4.57
2023-02-25T09:27:58.867Z,4.79
2023-02-25T09:30:47.614Z,5.18
2023-02-25T09:33:34.820Z,5.08
2023-02-25T09:36:21.513Z,5.05
2023-02-25T09:39:06.533Z,4.91
2023-02-25T09:42:04.705Z,4.55
2023-02-25T09:44:52.987Z,4.66
2023-02-25T09:47:58.231Z,4.77
2023-02-25T09:50:48.471Z,4.62
2023-02-25T09:53:41.881Z,4.72
2023-02-25T09:56:28.059Z,4.98
2023-02-25T09:59:16.170Z,5.19
2023-02-25T10:02:27.573Z,5.01
2023-02-25T10:05:23.563Z,5.25
2023-02-25T10:08:19.051Z,5.14
2023-02-25T10:11:13.070Z,5.04
2023-02-25T10:14:29.630Z,4.88
2023-02-25T10:17:33.727Z,4.90
2023-02-25T10:20:39.948Z,4.97
2023-02-25T10:23:31.688Z,5.56
2023-02-25T10:26:22.213Z,5.45
2023-02-25T10:29:16.345Z,5.57
2023-02-25T10:32:16.587Z,5.21
2023-02-25T10:35:13.956Z,5.09
2023-02-25T10:37:59.154Z,5.06
2023-02-25T10:40:44.367Z,4.93
2023-02-25T10:43:29.782Z,4.62
2023-02-25T10:46:35.907Z,4.66
2023-02-25T10:49:23.516Z,4.63
2023-02-25T10:52:19.328Z,4.45
2023-02-25T10:55:04.717Z,4.20
2023-02-25T10:57:50.014Z,4.09
2023-02-25T11:00:36.017Z,4.13
2023-02-25T11:03:24.196Z,4.67
2023-02-25T11:06:19.874Z,4.86
2023-02-25T11:09:26.005Z,4.66
2023-02-25T11:12:17.661Z,4.23
2023-02-25T11:15:38.154Z,4.14
2023-02-25T11:18:31.574Z,4.32
2023-02-25T11:21:16.843Z,4.38
2023-02-25T11:24:35.565Z,4.87
2023-02-25T11:27:33.018Z,5.17
2023-02-25T11:30:32.909Z,4.87
2023-02-25T11:33:32.949Z,4.86
2023-02-25T11:36:25.082Z,4.43
2023-02-25T11:39:23.922Z,4.41
2023-02-25T11:42:23.169Z,4.49
2023-02-25T11:45:19.046Z,5.83
2023-02-25T11:48:06.764Z,7.11
2023-02-25T11:51:17.896Z,6.99
2023-02-25T11:54:27.255Z,6.24
2023-02-25T11:57:41.680Z,5.64
2023-02-25T12:00:35.016Z,5.52
2023-02-25T12:03:31.795Z,6.16
2023-02-25T12:07:03.253Z,6.54
2023-02-25T12:10:30.316Z,5.82
2023-02-25T12:13:33.056Z,5.90
2023-02-25T12:16:56.094Z,5.94
2023-02-25T12:20:19.814Z,5.95
2023-02-25T12:23:37.135Z,6.52
2023-02-25T12:26:37.223Z,6.42
2023-02-25T12:29:31.784Z,6.14
2023-02-25T12:32:53.563Z,6.33
2023-02-25T12:36:00.186Z,6.44
2023-02-25T12:39:00.582Z,6.34
2023-02-25T12:41:58.132Z,5.14
2023-02-25T12:44:55.891Z,4.25
2023-02-25T12:47:55.271Z,4.23
2023-02-25T12:51:02.108Z,4.67
2023-02-25T12:54:29.705Z,4.68
2023-02-25T12:57:36.265Z,4.81
2023-02-25T13:00:40.996Z,5.07
2023-02-25T13:03:54.613Z,5.02
2023-02-25T13:06:45.756Z,4.87
2023-02-25T13:09:53.178Z,4.83
2023-02-25T13:12:37.919Z,4.56
2023-02-25T13:15:31.531Z,5.26
2023-02-25T13:18:31.903Z,5.15
2023-02-25T13:21:47.913Z,4.83
2023-02-25T13:24:44.955Z,4.31
2023-02-25T13:27:42.659Z,4.62
2023-02-25T13:30:42.040Z,6.17
2023-02-25T13:33:41.744Z,6.26
2023-02-25T13:36:29.628Z,6.13
2023-02-25T13:39:29.131Z,6.24
2023-02-25T13:42:56.836Z,4.98
2023-02-25T13:46:19.672Z,5.94
2023-02-25T13:49:16.798Z,6.34
2023-02-25T13:52:15.818Z,5.28
2023-02-25T13:55:38.062Z,5.96
2023-02-25T13:58:44.693Z,5.77
2023-02-25T14:01:29.607Z,7.04
2023-02-25T14:04:23.577Z,7.91
2023-02-25T14:07:12.243Z,7.62
2023-02-25T14:10:12.849Z,7.24
2023-02-25T14:13:35.940Z,6.57
2023-02-25T14:16:31.022Z,5.07
2023-02-25T14:19:19.048Z,5.10
2023-02-25T14:22:36.139Z,4.92
2023-02-25T14:25:52.533Z,4.64
2023-02-25T14:28:49.577Z,5.06
2023-02-25T14:31:56.570Z,4.52
2023-02-25T14:34:45.839Z,4.57
2023-02-25T14:37:49.881Z,4.42
2023-02-25T14:40:40.989Z,4.47
2023-02-25T14:43:30.537Z,4.62
2023-02-25T14:46:18.544Z,4.44
2023-02-25T14:49:18.193Z,4.36
2023-02-25T14:52:43.614Z,4.47
2023-02-25T14:55:37.651Z,4.47
2023-02-25T14:58:44.210Z,4.55
2023-02-25T15:02:02.737Z,4.60
2023-02-25T15:05:02.054Z,4.58
2023-02-25T15:08:21.178Z,5.48
2023-02-25T15:11:20.973Z,5.53
2023-02-25T15:14:25.070Z,5.33
2023-02-25T15:17:19.070Z,5.27
2023-02-25T15:20:33.457Z,4.96
2023-02-25T15:23:19.911Z,4.21
2023-02-25T15:26:45.964Z,4.45
2023-02-25T15:29:31.199Z,4.69
2023-02-25T15:32:28.027Z,4.77
2023-02-25T15:35:19.902Z,4.59
2023-02-25T15:38:12.478Z,4.28
2023-02-25T15:40:58.235Z,4.29
2023-02-25T15:43:44.091Z,4.27
2023-02-25T15:46:35.623Z,4.01
2023-02-25T15:49:35.917Z,4.65
2023-02-25T15:52:53.878Z,4.82
2023-02-25T15:55:43.281Z,5.15
2023-02-25T15:58:31.515Z,5.43
2023-02-25T16:01:27.989Z,5.19
2023-02-25T16:04:44.263Z,4.86
2023-02-25T16:07:35.718Z,5.22
2023-02-25T16:10:40.036Z,4.71
2023-02-25T16:13:36.768Z,4.12
2023-02-25T16:16:22.849Z,3.79
2023-02-25T16:19:15.519Z,3.69
2023-02-25T16:22:04.976Z,3.77
2023-02-25T16:24:59.930Z,3.55
2023-02-25T16:28:03.787Z,3.21
2023-02-25T16:30:59.335Z,3.29
2023-02-25T16:33:51.322Z,3.25
2023-02-25T16:36:45.322Z,3.23
2023-02-25T16:39:32.165Z,3.28
2023-02-25T16:42:18.722Z,3.27
2023-02-25T16:45:06.197Z,3.12
2023-02-25T16:47:56.296Z,3.16
2023-02-25T16:50:45.822Z,2.83
2023-02-25T16:53:31.667Z,2.84
2023-02-25T16:56:21.639Z,2.77
2023-02-25T16:59:20.651Z,2.81
2023-02-25T17:02:14.989Z,2.75
2023-02-25T17:04:59.939Z,2.71
2023-02-25T17:07:45.306Z,2.62
2023-02-25T17:10:37.361Z,2.71
2023-02-25T17:13:22.685Z,2.64
2023-02-25T17:16:20.319Z,2.62
2023-02-25T17:19:10.060Z,2.58
2023-02-25T17:21:58.558Z,2.60
2023-02-25T17:24:43.868Z,2.54
2023-02-25T17:27:29.085Z,2.53
2023-02-25T17:30:37.543Z,2.50
2023-02-25T17:33:26.568Z,2.47
2023-02-25T17:36:13.447Z,2.44
2023-02-25T17:39:02.583Z,2.44
2023-02-25T17:41:51.302Z,2.27
2023-02-25T17:44:39.656Z,2.27
2023-02-25T17:47:28.132Z,2.20
2023-02-25T17:50:30.249Z,2.19
2023-02-25T17:53:47.833Z,2.10
2023-02-25T17:56:34.100Z,2.05
2023-02-25T17:59:33.392Z,2.06
2023-02-25T18:02:29.304Z,2.05
2023-02-25T18:05:14.310Z,2.01
2023-02-25T18:08:23.343Z,1.91
2023-02-25T18:11:24.341Z,1.84
2023-02-25T18:14:25.564Z,1.90
2023-02-25T18:17:16.498Z,1.85
2023-02-25T18:20:05.019Z,1.81
2023-02-25T18:22:50.510Z,1.76
2023-02-25T18:25:40.142Z,1.79
2023-02-25T18:28:25.080Z,1.78
2023-02-25T18:31:10.644Z,1.62
2023-02-25T18:33:55.860Z,1.70
2023-02-25T18:36:41.327Z,1.60
2023-02-25T18:39:26.718Z,1.54
2023-02-25T18:42:14.224Z,1.52
2023-02-25T18:44:59.351Z,1.58
2023-02-25T18:47:45.206Z,1.46
2023-02-25T18:50:32.724Z,1.34
2023-02-25T18:53:20.831Z,1.33
2023-02-25T18:56:15.300Z,1.31
2023-02-25T18:59:00.911Z,1.20
2023-02-25T19:01:46.583Z,1.12
2023-02-25T19:04:35.970Z,1.12
2023-02-25T19:07:26.934Z,1.09
2023-02-25T19:10:16.637Z,0.92
2023-02-25T19:13:07.678Z,0.95
2023-02-25T19:15:53.034Z,0.84
2023-02-25T19:18:38.426Z,0.83
2023-02-25T19:21:23.924Z,0.80
2023-02-25T19:24:11.909Z,0.67
2023-02-25T19:26:59.466Z,0.65
2023-02-25T19:29:44.790Z,0.54
2023-02-25T19:32:30.150Z,0.68
2023-02-25T19:35:15.853Z,0.79
2023-02-25T19:38:01.885Z,0.87
2023-02-25T19:40:47.900Z,0.79
2023-02-25T19:43:33.845Z,0.92
2023-02-25T19:46:19.246Z,0.99
2023-02-25T19:49:04.678Z,1.01
2023-02-25T19:51:49.637Z,1.09
2023-02-25T19:54:35.064Z,1.10
2023-02-25T19:57:20.179Z,1.04
2023-02-25T20:00:08.739Z,1.04
2023-02-25T20:02:54.413Z,1.03
2023-02-25T20:05:39.911Z,1.06
2023-02-25T20:08:24.948Z,1.11
2023-02-25T20:11:11.219Z,1.12
2023-02-25T20:13:56.430Z,1.09
2023-02-25T20:16:42.125Z,0.98
2023-02-25T20:19:28.528Z,0.86
2023-02-25T20:22:13.944Z,0.82
2023-02-25T20:24:58.807Z,0.70
2023-02-25T20:27:43.889Z,0.69
2023-02-25T20:30:29.380Z,0.80
2023-02-25T20:33:14.476Z,0.74
2023-02-25T20:36:01.805Z,0.69
2023-02-25T20:39:14.928Z,0.69
2023-02-25T20:42:00.909Z,0.75
2023-02-25T20:44:49.746Z,0.68
2023-02-25T20:47:36.797Z,0.60
2023-02-25T20:50:27.105Z,0.56
2023-02-25T20:53:12.685Z,0.61
2023-02-25T20:55:58.002Z,0.59
2023-02-25T20:58:43.552Z,0.53
2023-02-25T21:01:28.851Z,0.53
2023-02-25T21:04:14.061Z,0.50
2023-02-25T21:06:59.282Z,0.27
2023-02-25T21:09:44.744Z,0.21
2023-02-25T21:12:29.928Z,0.18
2023-02-25T21:15:15.885Z,0.21
2023-02-25T21:18:01.194Z,-0.04
2023-02-25T21:20:46.608Z,0.05
2023-02-25T21:23:32.135Z,-0.13
2023-02-25T21:26:17.191Z,0.05
2023-02-25T21:29:02.780Z,0.01
2023-02-25T21:31:47.970Z,-0.07
2023-02-25T21:34:33.347Z,-0.11
2023-02-25T21:37:18.347Z,-0.11
2023-02-25T21:40:03.899Z,-0.21
2023-02-25T21:42:49.122Z,-0.18
2023-02-25T21:45:34.615Z,-0.26
2023-02-25T21:48:22.842Z,-0.37
2023-02-25T21:51:16.078Z,-0.24
2023-02-25T21:54:02.233Z,-0.29
2023-02-25T21:56:47.302Z,-0.32
2023-02-25T21:59:32.270Z,-0.34
2023-02-25T22:02:17.402Z,-0.22
2023-02-25T22:05:02.755Z,-0.23
2023-02-25T22:07:47.681Z,-0.25
2023-02-25T22:10:33.296Z,-0.24
2023-02-25T22:13:18.401Z,-0.21
2023-02-25T22:16:03.619Z,-0.34
2023-02-25T22:18:49.788Z,-0.33
2023-02-25T22:21:36.089Z,-0.35
2023-02-25T22:24:22.123Z,-0.41
2023-02-25T22:27:07.366Z,-0.37
2023-02-25T22:29:52.586Z,-0.60
2023-02-25T22:32:37.798Z,-0.50
2023-02-25T22:35:23.196Z,-0.60
2023-02-25T22:38:08.094Z,-0.50
2023-02-25T22:40:53.197Z,-0.58
2023-02-25T22:43:38.258Z,-0.51
2023-02-25T22:46:38.290Z,-0.66
2023-02-25T22:49:23.454Z,-0.63
2023-02-25T22:52:08.954Z,-0.58
2023-02-25T22:54:54.217Z,-0.59
2023-02-25T22:57:39.146Z,-0.57
2023-02-25T23:00:24.028Z,-0.56
2023-02-25T23:03:10.267Z,-0.57
2023-02-25T23:05:55.508Z,-0.70
2023-02-25T23:08:41.552Z,-0.63
2023-02-25T23:11:30.191Z,-0.61
2023-02-25T23:14:15.493Z,-0.72
2023-02-25T23:17:00.753Z,-0.71
2023-02-25T23:19:46.163Z,-0.62
2023-02-25T23:22:33.695Z,-0.61
2023-02-25T23:25:19.976Z,-0.59
2023-02-25T23:28:09.875Z,-0.59
2023-02-25T23:30:54.800Z,-0.80
2023-02-25T23:33:40.134Z,-0.69
2023-02-25T23:36:29.028Z,-0.67
2023-02-25T23:39:15.249Z,-0.70
2023-02-25T23:42:00.373Z,-0.60
2023-02-25T23:44:45.826Z,-0.64
2023-02-25T23:47:30.680Z,-0.61
2023-02-25T23:50:16.566Z,-0.62
2023-02-25T23:53:01.468Z,-0.71
2023-02-25T23:55:46.843Z,-0.72
2023-02-25T23:58:31.934Z,-0.68
